Westview Chinook — VG3278 — position and weather

sailwx.info

Track history (hours):
 
Tides and Currents Weather Stations Pressure Air Temp Water Temp Dewpoint Dewpoint Depression Visibility Wind Speed Wind Dir Waves Ship Positions

Westview Chinook

Last reported at 2015-Jan-31 08:33 UTC. Time now 2015-Jan-31 08:39 UTC.
Position N 49°10' W 122°56'.

Length 16 m; draft 3.5 m.

Type: Towing. MMSI: 316005622.

Date/timePositionNaut miles runAvg speedWind from/ knotsBaromVisibWave heightAir tempDewpointWater temp
2015-Jan-31 08:33N 49°10' W 122°56'1 1.3
2015-Jan-31 07:33N 49°09' W 122°58'0 0.0
2015-Jan-31 06:33N 49°09' W 122°58'0 0.1
2015-Jan-31 05:33N 49°10' W 122°58'5 4.9
2015-Jan-31 04:33N 49°13' W 122°53'5 4.7
2015-Jan-31 03:33N 49°09' W 122°58'0 0.1
2015-Jan-31 02:33N 49°09' W 122°58'3 1.4
2015-Jan-31 00:33N 49°12' W 122°55'3 3.1
2015-Jan-30 23:33N 49°09' W 122°58'0 0.1
2015-Jan-30 22:33N 49°09' W 122°58'0 0.1
2015-Jan-30 21:33N 49°10' W 122°58'0 0.1
2015-Jan-30 20:33N 49°09' W 122°58'2 2.0
2015-Jan-30 19:30N 49°12' W 122°57'7 6.9
2015-Jan-30 18:33N 49°12' W 123°07'5 4.7
2015-Jan-30 17:33N 49°14' W 123°14'0 0.5
2015-Jan-30 16:33N 49°14' W 123°14'3 2.7
2015-Jan-30 15:34N 49°13' W 123°11'4 4.4
2015-Jan-30 14:34N 49°12' W 123°04'0 0.0
2015-Jan-30 13:33N 49°12' W 123°04'4 3.6
2015-Jan-30 12:33N 49°11' W 122°59'2 1.7
2015-Jan-30 11:33N 49°12' W 123°01'4 3.9
2015-Jan-30 10:33N 49°12' W 123°07'1 1.0
2015-Jan-30 09:33N 49°12' W 123°06'1 0.9
2015-Jan-30 08:33N 49°12' W 123°07'1 1.4
2015-Jan-30 07:33N 49°12' W 123°09'8 7.6
2015-Jan-30 06:33N 49°16' W 123°19'2 2.5
2015-Jan-30 05:33N 49°15' W 123°22'7 7.3
2015-Jan-30 04:33N 49°07' W 123°19'9 8.6
2015-Jan-30 03:33N 49°07' W 123°06'9 8.8
2015-Jan-30 02:31N 49°12' W 122°54'3 3.0
2015-Jan-30 01:33N 49°10' W 122°57'5 5.5
2015-Jan-30 00:33N 49°07' W 123°04'5 4.9
2015-Jan-29 23:33N 49°09' W 122°57'5 4.8
2015-Jan-29 22:33N 49°13' W 122°53'6 6.1
2015-Jan-29 21:33N 49°12' W 122°43'4 4.5
2015-Jan-29 20:33N 49°13' W 122°50'6 6.1
2015-Jan-29 19:33N 49°09' W 122°57'5 5.4
2015-Jan-29 18:34N 49°13' W 122°51'5 5.2
2015-Jan-29 17:33N 49°15' W 122°44'3 3.1
2015-Jan-29 16:33N 49°12' W 122°43'2 1.9
2015-Jan-29 15:33N 49°11' W 122°41'5 4.7
2015-Jan-29 14:33N 49°13' W 122°47'6 5.9
2015-Jan-29 13:33N 49°10' W 122°55'1 0.7
2015-Jan-29 12:33N 49°11' W 122°55'3 2.5
2015-Jan-29 11:33N 49°10' W 122°58'4 3.6
2015-Jan-29 10:33N 49°08' W 123°03'0 0.4
2015-Jan-29 09:33N 49°09' W 123°03'5 5.5
2015-Jan-29 08:34N 49°11' W 122°55'6 6.0
2015-Jan-29 07:33N 49°13' W 122°47'4 3.6
2015-Jan-29 06:33N 49°11' W 122°42'5 4.7
2015-Jan-29 05:33N 49°13' W 122°48'4 4.5
2015-Jan-29 04:34N 49°11' W 122°55'0 0.5
2015-Jan-29 03:33N 49°11' W 122°55'2 2.0
2015-Jan-29 02:33N 49°13' W 122°53'6 1.9
2015-Jan-28 23:33N 49°13' W 122°44'3 3.4
2015-Jan-28 22:33N 49°12' W 122°40'5 4.6
2015-Jan-28 21:33N 49°13' W 122°46'1 1.0
2015-Jan-28 20:33N 49°13' W 122°48'3 3.2
2015-Jan-28 19:33N 49°11' W 122°44'0 0.0
2015-Jan-28 18:33N 49°11' W 122°44'4 4.0
2015-Jan-28 17:33N 49°13' W 122°49'7 6.5
2015-Jan-28 16:33N 49°09' W 122°57'5 4.6
2015-Jan-28 15:32N 49°13' W 122°53'5 5.5
2015-Jan-28 14:33N 49°13' W 122°45'1 1.1
2015-Jan-28 13:27N 49°14' W 122°46'3 2.9
2015-Jan-28 12:33N 49°13' W 122°50'6 6.3
2015-Jan-28 11:33N 49°09' W 122°58'2 1.5
2015-Jan-28 10:33N 49°11' W 122°58'4 4.1
2015-Jan-28 09:34N 49°12' W 123°04'3 3.4
2015-Jan-28 08:33N 49°11' W 122°59'5 4.9
2015-Jan-28 07:34N 49°13' W 122°53'6 6.0
2015-Jan-28 06:33N 49°11' W 122°43'2 1.6
2015-Jan-28 05:33N 49°13' W 122°44'3 3.3
2015-Jan-28 04:33N 49°12' W 122°39'3 2.8
2015-Jan-28 03:33N 49°12' W 122°44'6 5.6
2015-Jan-28 02:33N 49°13' W 122°52'5 4.6
2015-Jan-28 01:33N 49°10' W 122°57'3 3.5
2015-Jan-28 00:33N 49°12' W 122°54'7 7.1
2015-Jan-27 23:33N 49°11' W 122°43'2 2.0
2015-Jan-27 22:33N 49°13' W 122°44'1 1.3
2015-Jan-27 21:31N 49°14' W 122°46'1 1.2
2015-Jan-27 20:28N 49°13' W 122°45'0 0.0
2015-Jan-27 19:29N 49°13' W 122°44'0 0.0
2015-Jan-27 18:33N 49°13' W 122°44'0 0.0
2015-Jan-27 17:32N 49°13' W 122°45'1 1.1
2015-Jan-27 16:33N 49°14' W 122°46'2 1.7
2015-Jan-27 15:33N 49°13' W 122°44'2 2.4
2015-Jan-27 14:33N 49°12' W 122°40'6 6.4
2015-Jan-27 13:33N 49°13' W 122°50'6 5.8
2015-Jan-27 12:33N 49°10' W 122°57'3 3.3
2015-Jan-27 11:33N 49°12' W 122°54'6 6.2
2015-Jan-27 10:33N 49°13' W 122°45'2 2.5
2015-Jan-27 09:33N 49°11' W 122°42'0 0.4
2015-Jan-27 08:32N 49°11' W 122°41'2 1.6
2015-Jan-27 07:33N 49°12' W 122°43'6 6.1
2015-Jan-27 06:33N 49°13' W 122°53'5 5.0
2015-Jan-27 05:33N 49°10' W 122°58'4 3.6
2015-Jan-27 04:32N 49°12' W 122°54'6 6.1
2015-Jan-27 03:32N 49°14' W 122°45'1 1.1
2015-Jan-27 02:33N 49°15' W 122°44'5 2.6
2015-Jan-27 00:33N 49°13' W 122°51'5 5.1
2015-Jan-26 23:33N 49°11' W 122°58'5 5.0
2015-Jan-26 22:33N 49°12' W 123°06'7 6.5
2015-Jan-26 21:33N 49°15' W 123°15'4 4.1
2015-Jan-26 20:33N 49°13' W 123°09'5 5.4
2015-Jan-26 19:34N 49°12' W 123°01'4 3.7
2015-Jan-26 18:33N 49°12' W 122°56'1 1.2
2015-Jan-26 17:33N 49°12' W 122°54'4 4.5
2015-Jan-26 16:33N 49°13' W 122°47'4 4.3
2015-Jan-26 15:33N 49°11' W 122°41'4 3.6
2015-Jan-26 14:33N 49°13' W 122°46'1 0.0
2015-Jan-25 12:23N 49°13' W 122°48'5 6.1
2015-Jan-25 11:33N 49°12' W 122°55'6 6.1
2015-Jan-25 10:33N 49°12' W 123°04'1 0.6
2015-Jan-25 09:33N 49°12' W 123°05'0 0.1
2015-Jan-25 08:33N 49°12' W 123°05'0 0.4
2015-Jan-25 07:32N 49°12' W 123°04'0 0.0
2015-Jan-25 06:34N 49°12' W 123°04'0 0.0
2015-Jan-25 05:33N 49°12' W 123°04'0 0.0
2015-Jan-25 04:33N 49°12' W 123°04'4 4.3
2015-Jan-25 03:34N 49°11' W 122°58'8 0.4
2015-Jan-24 07:27N 49°14' W 122°46'0 0.0
2015-Jan-24 00:28N 49°14' W 122°46'0 0.0
2015-Jan-23 22:07N 49°14' W 122°46'0 0.0
2015-Jan-23 20:24N 49°14' W 122°46'0 0.0
2015-Jan-23 19:28N 49°14' W 122°46'0 0.0
2015-Jan-23 18:33N 49°14' W 122°46'0 0.0
2015-Jan-23 17:32N 49°14' W 122°46'0 0.0
2015-Jan-23 15:24N 49°14' W 122°46'0 0.0
2015-Jan-23 13:33N 49°14' W 122°46'0 0.0
2015-Jan-23 12:14N 49°14' W 122°46'0 0.0
2015-Jan-23 11:29N 49°14' W 122°46'0 0.0
2015-Jan-23 10:27N 49°14' W 122°46'2 0.2
2015-Jan-23 00:33N 49°13' W 122°44'1 1.2
2015-Jan-22 23:33N 49°13' W 122°46'5 5.3
2015-Jan-22 22:33N 49°13' W 122°54'5 4.6
2015-Jan-22 21:33N 49°09' W 122°59'4 4.5
2015-Jan-22 20:33N 49°07' W 123°05'5 4.6
2015-Jan-22 19:33N 49°09' W 122°58'5 5.3
2015-Jan-22 18:33N 49°13' W 122°52'5 5.2
2015-Jan-22 17:33N 49°15' W 122°45'1 0.5
2015-Jan-22 16:31N 49°15' W 122°44'3 3.5
2015-Jan-22 15:33N 49°13' W 122°48'9 9.0
2015-Jan-22 14:33N 49°12' W 123°02'1 0.8
2015-Jan-22 13:34N 49°12' W 123°03'2 1.8
2015-Jan-22 12:33N 49°12' W 123°01'5 4.5
2015-Jan-22 11:28N 49°13' W 122°53'1 1.1
2015-Jan-22 10:34N 49°13' W 122°52'1 0.8
2015-Jan-22 09:34N 49°13' W 122°51'6 5.7
2015-Jan-22 08:34N 49°12' W 122°42'3 2.6
2015-Jan-22 07:30N 49°14' W 122°46'0 0.0
2015-Jan-22 06:33N 49°14' W 122°46'0 0.0
2015-Jan-22 04:25N 49°14' W 122°46'0 0.0
2015-Jan-22 03:25N 49°14' W 122°46'0 0.0
2015-Jan-22 02:28N 49°14' W 122°46'0 0.0
2015-Jan-22 01:16N 49°14' W 122°46'0 0.0
2015-Jan-22 00:32N 49°14' W 122°46'4 3.6
2015-Jan-21 23:29N 49°13' W 122°51'3 4.7
2015-Jan-21 22:50N 49°11' W 122°55'1 8.5
2015-Jan-21 22:46N 49°12' W 122°55'1 6.0
2015-Jan-21 22:32N 49°12' W 122°57'2 1.6
2015-Jan-21 21:33N 49°10' W 122°56'1 1.2
2015-Jan-21 20:33N 49°12' W 122°55'6 6.4
2015-Jan-21 19:34N 49°12' W 123°05'2 2.3
2015-Jan-21 18:33N 49°12' W 123°08'9 7.3
2015-Jan-21 17:17N 49°12' W 122°54'5 0.6
2015-Jan-21 10:15N 49°13' W 122°47'4 6.2
2015-Jan-21 09:33N 49°12' W 122°54'  
Track history (hours):
 
Tides and Currents Weather Stations Pressure Air Temp Water Temp Dewpoint Dewpoint Depression Visibility Wind Speed Wind Dir Waves Ship Positions

Westview Chinook

Last reported at 2015-Jan-31 08:33 UTC. Time now 2015-Jan-31 08:39 UTC.
Position N 49°10' W 122°56'.

Length 16 m; draft 3.5 m.

Type: Towing. MMSI: 316005622.

Date/timePositionNaut miles runAvg speedWind from/ knotsBaromVisibWave heightAir tempDewpointWater temp
2015-Jan-31 08:33N 49°10' W 122°56'1 1.3
2015-Jan-31 07:33N 49°09' W 122°58'0 0.0
2015-Jan-31 06:33N 49°09' W 122°58'0 0.1
2015-Jan-31 05:33N 49°10' W 122°58'5 4.9
2015-Jan-31 04:33N 49°13' W 122°53'5 4.7
2015-Jan-31 03:33N 49°09' W 122°58'0 0.1
2015-Jan-31 02:33N 49°09' W 122°58'3 1.4
2015-Jan-31 00:33N 49°12' W 122°55'3 3.1
2015-Jan-30 23:33N 49°09' W 122°58'0 0.1
2015-Jan-30 22:33N 49°09' W 122°58'0 0.1
2015-Jan-30 21:33N 49°10' W 122°58'0 0.1
2015-Jan-30 20:33N 49°09' W 122°58'2 2.0
2015-Jan-30 19:30N 49°12' W 122°57'7 6.9
2015-Jan-30 18:33N 49°12' W 123°07'5 4.7
2015-Jan-30 17:33N 49°14' W 123°14'0 0.5
2015-Jan-30 16:33N 49°14' W 123°14'3 2.7
2015-Jan-30 15:34N 49°13' W 123°11'4 4.4
2015-Jan-30 14:34N 49°12' W 123°04'0 0.0
2015-Jan-30 13:33N 49°12' W 123°04'4 3.6
2015-Jan-30 12:33N 49°11' W 122°59'2 1.7
2015-Jan-30 11:33N 49°12' W 123°01'4 3.9
2015-Jan-30 10:33N 49°12' W 123°07'1 1.0
2015-Jan-30 09:33N 49°12' W 123°06'1 0.9
2015-Jan-30 08:33N 49°12' W 123°07'1 1.4
2015-Jan-30 07:33N 49°12' W 123°09'8 7.6
2015-Jan-30 06:33N 49°16' W 123°19'2 2.5
2015-Jan-30 05:33N 49°15' W 123°22'7 7.3
2015-Jan-30 04:33N 49°07' W 123°19'9 8.6
2015-Jan-30 03:33N 49°07' W 123°06'9 8.8
2015-Jan-30 02:31N 49°12' W 122°54'3 3.0
2015-Jan-30 01:33N 49°10' W 122°57'5 5.5
2015-Jan-30 00:33N 49°07' W 123°04'5 4.9
2015-Jan-29 23:33N 49°09' W 122°57'5 4.8
2015-Jan-29 22:33N 49°13' W 122°53'6 6.1
2015-Jan-29 21:33N 49°12' W 122°43'4 4.5
2015-Jan-29 20:33N 49°13' W 122°50'6 6.1
2015-Jan-29 19:33N 49°09' W 122°57'5 5.4
2015-Jan-29 18:34N 49°13' W 122°51'5 5.2
2015-Jan-29 17:33N 49°15' W 122°44'3 3.1
2015-Jan-29 16:33N 49°12' W 122°43'2 1.9
2015-Jan-29 15:33N 49°11' W 122°41'5 4.7
2015-Jan-29 14:33N 49°13' W 122°47'6 5.9
2015-Jan-29 13:33N 49°10' W 122°55'1 0.7
2015-Jan-29 12:33N 49°11' W 122°55'3 2.5
2015-Jan-29 11:33N 49°10' W 122°58'4 3.6
2015-Jan-29 10:33N 49°08' W 123°03'0 0.4
2015-Jan-29 09:33N 49°09' W 123°03'5 5.5
2015-Jan-29 08:34N 49°11' W 122°55'6 6.0
2015-Jan-29 07:33N 49°13' W 122°47'4 3.6
2015-Jan-29 06:33N 49°11' W 122°42'5 4.7
2015-Jan-29 05:33N 49°13' W 122°48'4 4.5
2015-Jan-29 04:34N 49°11' W 122°55'0 0.5
2015-Jan-29 03:33N 49°11' W 122°55'2 2.0
2015-Jan-29 02:33N 49°13' W 122°53'6 1.9
2015-Jan-28 23:33N 49°13' W 122°44'3 3.4
2015-Jan-28 22:33N 49°12' W 122°40'5 4.6
2015-Jan-28 21:33N 49°13' W 122°46'1 1.0
2015-Jan-28 20:33N 49°13' W 122°48'3 3.2
2015-Jan-28 19:33N 49°11' W 122°44'0 0.0
2015-Jan-28 18:33N 49°11' W 122°44'4 4.0
2015-Jan-28 17:33N 49°13' W 122°49'7 6.5
2015-Jan-28 16:33N 49°09' W 122°57'5 4.6
2015-Jan-28 15:32N 49°13' W 122°53'5 5.5
2015-Jan-28 14:33N 49°13' W 122°45'1 1.1
2015-Jan-28 13:27N 49°14' W 122°46'3 2.9
2015-Jan-28 12:33N 49°13' W 122°50'6 6.3
2015-Jan-28 11:33N 49°09' W 122°58'2 1.5
2015-Jan-28 10:33N 49°11' W 122°58'4 4.1
2015-Jan-28 09:34N 49°12' W 123°04'3 3.4
2015-Jan-28 08:33N 49°11' W 122°59'5 4.9
2015-Jan-28 07:34N 49°13' W 122°53'6 6.0
2015-Jan-28 06:33N 49°11' W 122°43'2 1.6
2015-Jan-28 05:33N 49°13' W 122°44'3 3.3
2015-Jan-28 04:33N 49°12' W 122°39'3 2.8
2015-Jan-28 03:33N 49°12' W 122°44'6 5.6
2015-Jan-28 02:33N 49°13' W 122°52'5 4.6
2015-Jan-28 01:33N 49°10' W 122°57'3 3.5
2015-Jan-28 00:33N 49°12' W 122°54'7 7.1
2015-Jan-27 23:33N 49°11' W 122°43'2 2.0
2015-Jan-27 22:33N 49°13' W 122°44'1 1.3
2015-Jan-27 21:31N 49°14' W 122°46'1 1.2
2015-Jan-27 20:28N 49°13' W 122°45'0 0.0
2015-Jan-27 19:29N 49°13' W 122°44'0 0.0
2015-Jan-27 18:33N 49°13' W 122°44'0 0.0
2015-Jan-27 17:32N 49°13' W 122°45'1 1.1
2015-Jan-27 16:33N 49°14' W 122°46'2 1.7
2015-Jan-27 15:33N 49°13' W 122°44'2 2.4
2015-Jan-27 14:33N 49°12' W 122°40'6 6.4
2015-Jan-27 13:33N 49°13' W 122°50'6 5.8
2015-Jan-27 12:33N 49°10' W 122°57'3 3.3
2015-Jan-27 11:33N 49°12' W 122°54'6 6.2
2015-Jan-27 10:33N 49°13' W 122°45'2 2.5
2015-Jan-27 09:33N 49°11' W 122°42'0 0.4
2015-Jan-27 08:32N 49°11' W 122°41'2 1.6
2015-Jan-27 07:33N 49°12' W 122°43'6 6.1
2015-Jan-27 06:33N 49°13' W 122°53'5 5.0
2015-Jan-27 05:33N 49°10' W 122°58'4 3.6
2015-Jan-27 04:32N 49°12' W 122°54'6 6.1
2015-Jan-27 03:32N 49°14' W 122°45'1 1.1
2015-Jan-27 02:33N 49°15' W 122°44'5 2.6
2015-Jan-27 00:33N 49°13' W 122°51'5 5.1
2015-Jan-26 23:33N 49°11' W 122°58'5 5.0
2015-Jan-26 22:33N 49°12' W 123°06'7 6.5
2015-Jan-26 21:33N 49°15' W 123°15'4 4.1
2015-Jan-26 20:33N 49°13' W 123°09'5 5.4
2015-Jan-26 19:34N 49°12' W 123°01'4 3.7
2015-Jan-26 18:33N 49°12' W 122°56'1 1.2
2015-Jan-26 17:33N 49°12' W 122°54'4 4.5
2015-Jan-26 16:33N 49°13' W 122°47'4 4.3
2015-Jan-26 15:33N 49°11' W 122°41'4 3.6
2015-Jan-26 14:33N 49°13' W 122°46'1 0.0
2015-Jan-25 12:23N 49°13' W 122°48'5 6.1
2015-Jan-25 11:33N 49°12' W 122°55'6 6.1
2015-Jan-25 10:33N 49°12' W 123°04'1 0.6
2015-Jan-25 09:33N 49°12' W 123°05'0 0.1
2015-Jan-25 08:33N 49°12' W 123°05'0 0.4
2015-Jan-25 07:32N 49°12' W 123°04'0 0.0
2015-Jan-25 06:34N 49°12' W 123°04'0 0.0
2015-Jan-25 05:33N 49°12' W 123°04'0 0.0
2015-Jan-25 04:33N 49°12' W 123°04'4 4.3
2015-Jan-25 03:34N 49°11' W 122°58'8 0.4
2015-Jan-24 07:27N 49°14' W 122°46'0 0.0
2015-Jan-24 00:28N 49°14' W 122°46'0 0.0
2015-Jan-23 22:07N 49°14' W 122°46'0 0.0
2015-Jan-23 20:24N 49°14' W 122°46'0 0.0
2015-Jan-23 19:28N 49°14' W 122°46'0 0.0
2015-Jan-23 18:33N 49°14' W 122°46'0 0.0
2015-Jan-23 17:32N 49°14' W 122°46'0 0.0
2015-Jan-23 15:24N 49°14' W 122°46'0 0.0
2015-Jan-23 13:33N 49°14' W 122°46'0 0.0
2015-Jan-23 12:14N 49°14' W 122°46'0 0.0
2015-Jan-23 11:29N 49°14' W 122°46'0 0.0
2015-Jan-23 10:27N 49°14' W 122°46'2 0.2
2015-Jan-23 00:33N 49°13' W 122°44'1 1.2
2015-Jan-22 23:33N 49°13' W 122°46'5 5.3
2015-Jan-22 22:33N 49°13' W 122°54'5 4.6
2015-Jan-22 21:33N 49°09' W 122°59'4 4.5
2015-Jan-22 20:33N 49°07' W 123°05'5 4.6
2015-Jan-22 19:33N 49°09' W 122°58'5 5.3
2015-Jan-22 18:33N 49°13' W 122°52'5 5.2
2015-Jan-22 17:33N 49°15' W 122°45'1 0.5
2015-Jan-22 16:31N 49°15' W 122°44'3 3.5
2015-Jan-22 15:33N 49°13' W 122°48'9 9.0
2015-Jan-22 14:33N 49°12' W 123°02'1 0.8
2015-Jan-22 13:34N 49°12' W 123°03'2 1.8
2015-Jan-22 12:33N 49°12' W 123°01'5 4.5
2015-Jan-22 11:28N 49°13' W 122°53'1 1.1
2015-Jan-22 10:34N 49°13' W 122°52'1 0.8
2015-Jan-22 09:34N 49°13' W 122°51'6 5.7
2015-Jan-22 08:34N 49°12' W 122°42'3 2.6
2015-Jan-22 07:30N 49°14' W 122°46'0 0.0
2015-Jan-22 06:33N 49°14' W 122°46'0 0.0
2015-Jan-22 04:25N 49°14' W 122°46'0 0.0
2015-Jan-22 03:25N 49°14' W 122°46'0 0.0
2015-Jan-22 02:28N 49°14' W 122°46'0 0.0
2015-Jan-22 01:16N 49°14' W 122°46'0 0.0
2015-Jan-22 00:32N 49°14' W 122°46'4 3.6
2015-Jan-21 23:29N 49°13' W 122°51'3 4.7
2015-Jan-21 22:50N 49°11' W 122°55'1 8.5
2015-Jan-21 22:46N 49°12' W 122°55'1 6.0
2015-Jan-21 22:32N 49°12' W 122°57'2 1.6
2015-Jan-21 21:33N 49°10' W 122°56'1 1.2
2015-Jan-21 20:33N 49°12' W 122°55'6 6.4
2015-Jan-21 19:34N 49°12' W 123°05'2 2.3
2015-Jan-21 18:33N 49°12' W 123°08'9 7.3
2015-Jan-21 17:17N 49°12' W 122°54'5 0.6
2015-Jan-21 10:15N 49°13' W 122°47'4 6.2
2015-Jan-21 09:33N 49°12' W 122°54'  

Dump ship's entire track history